Time;durP1;ratioP1;P1;durP2;ratioP2;P2;SDS_P1;SDS_P2;PMS_P1;PMS_P2;Temp;Humidity;BMP_temperature;BMP_pressure;BME280_temperature;BME280_humidity;BME280_pressure;Samples;Min_cycle;Max_cycle;Signal;HPM_P1;HPM_P2
2022/11/20 00:00:27;;;;;;;69.20;36.90;;;;;;;-0.77;63.75;98795.30;226691;1249;139537;-67
2022/11/20 00:05:50;;;;;;;70.20;37.80;;;;;;;-0.80;63.68;98800.23;226834;1244;139119;-68
2022/11/20 00:10:53;;;;;;;74.40;39.20;;;;;;;-0.74;63.80;98798.02;227067;1236;139608;-69
2022/11/20 00:16:00;;;;;;;76.50;39.80;;;;;;;-0.62;63.55;98792.73;226936;1248;139052;-68
2022/11/20 00:21:10;;;;;;;72.20;37.50;;;;;;;-0.60;63.47;98787.78;226649;1234;139409;-67
2022/11/20 00:26:16;;;;;;;74.30;38.40;;;;;;;-0.60;63.34;98785.53;226639;1241;138734;-67
2022/11/20 00:31:19;;;;;;;71.20;38.00;;;;;;;-0.65;63.12;98784.77;226908;1234;139552;-66
2022/11/20 00:36:25;;;;;;;72.90;39.10;;;;;;;-0.75;62.97;98784.80;226639;1238;139883;-66
2022/11/20 00:41:29;;;;;;;69.00;37.00;;;;;;;-0.81;63.30;98792.06;227027;1249;138848;-67
2022/11/20 00:46:32;;;;;;;86.40;40.00;;;;;;;-0.87;63.12;98794.63;227556;1243;139030;-66
2022/11/20 00:51:35;;;;;;;70.80;37.10;;;;;;;-0.88;62.94;98787.34;227440;1226;139395;-62
2022/11/20 00:56:39;;;;;;;65.70;35.30;;;;;;;-0.92;62.85;98780.62;226247;1237;139463;-65
2022/11/20 01:01:43;;;;;;;68.00;36.90;;;;;;;-1.03;62.58;98773.53;227711;1231;139374;-71
2022/11/20 01:06:46;;;;;;;68.20;38.20;;;;;;;-1.11;62.66;98764.81;226928;1241;139600;-66
2022/11/20 01:11:49;;;;;;;69.10;38.50;;;;;;;-1.21;62.46;98770.92;227005;1249;139033;-65
2022/11/20 01:16:53;;;;;;;66.00;36.90;;;;;;;-1.24;62.65;98766.45;226899;1240;139278;-65
2022/11/20 01:21:56;;;;;;;70.90;36.50;;;;;;;-1.31;62.43;98767.79;227692;1242;139907;-69
2022/11/20 01:26:59;;;;;;;70.50;37.50;;;;;;;-1.37;62.76;98758.52;226894;1249;138829;-65
2022/11/20 01:32:02;;;;;;;68.30;36.10;;;;;;;-1.37;62.95;98748.95;226561;1250;139279;-66
2022/11/20 01:37:05;;;;;;;61.30;34.90;;;;;;;-1.41;62.97;98753.19;227695;1242;139790;-64
2022/11/20 01:47:41;;;;;;;68.50;37.90;;;;;;;-1.52;63.08;98752.70;227810;1242;138799;-65
2022/11/20 01:53:01;;;;;;;73.00;38.80;;;;;;;-1.52;63.02;98757.74;227733;1242;139791;-65
2022/11/20 01:58:05;;;;;;;69.20;35.80;;;;;;;-1.45;63.22;98755.17;226917;1241;139009;-66
2022/11/20 02:03:13;;;;;;;69.80;38.70;;;;;;;-1.47;63.06;98756.08;226918;1249;139092;-63
2022/11/20 02:08:17;;;;;;;70.20;38.50;;;;;;;-1.50;63.00;98758.75;226819;1233;139051;-63
2022/11/20 02:18:44;;;;;;;68.80;35.90;;;;;;;-1.62;62.67;98755.49;226856;1249;139139;-63
2022/11/20 02:23:53;;;;;;;71.80;40.70;;;;;;;-1.70;62.79;98764.48;227113;1247;140001;-63
2022/11/20 02:28:57;;;;;;;73.20;38.80;;;;;;;-1.71;63.11;98768.68;226931;1238;139616;-63
2022/11/20 02:34:00;;;;;;;74.80;41.10;;;;;;;-1.70;63.22;98771.45;226911;1234;138681;-63
2022/11/20 02:39:03;;;;;;;77.90;40.20;;;;;;;-1.67;63.13;98772.61;226832;1239;138639;-63
2022/11/20 02:44:06;;;;;;;72.40;40.50;;;;;;;-1.65;62.97;98767.55;226565;1249;141649;-62
2022/11/20 02:49:09;;;;;;;85.00;44.20;;;;;;;-1.69;62.87;98767.27;226906;1249;138671;-63
2022/11/20 02:54:12;;;;;;;78.00;41.90;;;;;;;-1.75;63.16;98767.18;226909;1244;140152;-65
2022/11/20 02:59:16;;;;;;;74.50;41.00;;;;;;;-1.76;62.86;98765.29;226931;1249;139421;-65
2022/11/20 03:04:19;;;;;;;75.90;40.60;;;;;;;-1.74;62.96;98757.09;226839;1249;138881;-65
2022/11/20 03:09:22;;;;;;;72.10;39.60;;;;;;;-1.75;63.03;98756.05;226877;1238;139813;-62
2022/11/20 03:14:25;;;;;;;71.80;40.00;;;;;;;-1.80;63.31;98759.46;226883;1234;138606;-64
2022/11/20 03:19:28;;;;;;;90.50;42.00;;;;;;;-1.85;63.17;98754.50;226792;1238;138476;-63
2022/11/20 03:24:31;;;;;;;73.20;40.60;;;;;;;-1.86;63.16;98755.70;226917;1245;140001;-65
2022/11/20 03:29:35;;;;;;;77.10;39.70;;;;;;;-1.83;63.27;98752.55;227753;1242;138976;-64
2022/11/20 03:34:38;;;;;;;86.50;41.70;;;;;;;-1.87;63.01;98752.63;226781;1234;140135;-63
2022/11/20 03:39:41;;;;;;;77.60;40.60;;;;;;;-1.91;62.97;98750.06;226776;1238;139407;-65
2022/11/20 03:44:44;;;;;;;73.70;40.90;;;;;;;-1.94;62.95;98741.08;226812;1251;138903;-66
2022/11/20 03:49:47;;;;;;;76.90;41.00;;;;;;;-1.93;63.00;98737.23;226585;1249;139375;-66
2022/11/20 03:54:50;;;;;;;85.40;41.30;;;;;;;-1.96;62.83;98736.77;226843;1249;139123;-66
2022/11/20 03:59:53;;;;;;;83.80;42.00;;;;;;;-1.95;62.90;98734.30;226933;1249;138978;-66
2022/11/20 04:04:57;;;;;;;76.50;39.60;;;;;;;-1.96;62.62;98736.77;227644;1242;138715;-64
2022/11/20 04:10:04;;;;;;;80.40;40.10;;;;;;;-2.03;62.56;98736.53;226804;1242;139687;-65
2022/11/20 04:15:08;;;;;;;85.90;41.80;;;;;;;-2.10;62.35;98737.70;226823;1250;139185;-65
2022/11/20 04:20:11;;;;;;;79.40;40.80;;;;;;;-2.13;62.45;98735.30;226849;1227;139189;-64
2022/11/20 04:25:14;;;;;;;72.70;39.10;;;;;;;-2.17;62.52;98730.66;226661;1249;139311;-61
2022/11/20 04:30:17;;;;;;;78.20;40.20;;;;;;;-2.23;62.40;98725.21;227720;1233;139412;-61
2022/11/20 04:35:20;;;;;;;75.80;39.20;;;;;;;-2.31;62.52;98718.90;227808;1226;139916;-61
2022/11/20 04:40:23;;;;;;;89.00;40.20;;;;;;;-2.36;62.40;98723.33;226652;1250;139607;-61
2022/11/20 04:45:26;;;;;;;82.70;42.60;;;;;;;-2.36;62.88;98720.20;226535;1237;139667;-61
2022/11/20 04:50:29;;;;;;;81.60;38.30;;;;;;;-2.30;62.77;98719.59;226893;1234;139428;-61
2022/11/20 04:55:32;;;;;;;79.70;40.90;;;;;;;-2.29;62.68;98715.75;226908;1249;138719;-65
2022/11/20 05:00:35;;;;;;;72.80;37.90;;;;;;;-2.32;62.75;98713.20;226941;1244;138884;-64
2022/11/20 05:05:38;;;;;;;71.40;39.00;;;;;;;-2.28;62.49;98710.34;226864;1240;138887;-63
2022/11/20 05:10:41;;;;;;;74.20;38.70;;;;;;;-2.32;62.40;98711.80;227775;1242;139785;-64
2022/11/20 05:15:44;;;;;;;76.00;38.90;;;;;;;-2.34;62.31;98714.10;226810;1237;139157;-64
2022/11/20 05:20:55;;;;;;;76.90;39.00;;;;;;;-2.37;62.33;98711.89;226777;1227;139242;-63
2022/11/20 05:25:58;;;;;;;81.10;38.00;;;;;;;-2.37;62.36;98709.80;226974;1230;139287;-63
2022/11/20 05:31:11;;;;;;;74.30;38.50;;;;;;;-2.43;62.34;98709.02;227629;1227;139438;-64
2022/11/20 05:36:15;;;;;;;76.00;38.50;;;;;;;-2.46;62.47;98702.28;226808;1238;140449;-66
2022/11/20 05:41:19;;;;;;;76.90;38.40;;;;;;;-2.49;62.48;98700.95;226925;1227;138859;-64
2022/11/20 05:46:22;;;;;;;79.80;38.40;;;;;;;-2.54;62.33;98695.30;226483;1250;138853;-64
2022/11/20 05:51:30;;;;;;;77.10;38.90;;;;;;;-2.53;62.63;98694.23;226816;1249;138686;-65
2022/11/20 05:56:33;;;;;;;80.40;40.60;;;;;;;-2.53;62.67;98686.42;226721;1237;138886;-65
2022/11/20 06:01:36;;;;;;;79.40;39.00;;;;;;;-2.52;62.48;98689.00;226619;1237;139143;-63
2022/11/20 06:06:39;;;;;;;77.10;40.10;;;;;;;-2.55;62.64;98690.61;227774;1226;139253;-63
2022/11/20 06:11:42;;;;;;;76.70;39.00;;;;;;;-2.58;62.49;98686.84;226988;1237;139158;-62
2022/11/20 06:16:45;;;;;;;73.40;39.60;;;;;;;-2.59;62.57;98691.36;226851;1247;139041;-63
2022/11/20 06:21:49;;;;;;;72.40;38.10;;;;;;;-2.58;62.41;98687.55;226599;1238;140046;-62
2022/11/20 06:26:52;;;;;;;82.90;41.20;;;;;;;-2.62;62.25;98691.94;226367;1226;138720;-62
2022/11/20 06:31:55;;;;;;;73.10;39.40;;;;;;;-2.64;62.58;98689.38;227604;1237;139076;-62
2022/11/20 06:36:58;;;;;;;70.40;39.10;;;;;;;-2.62;62.95;98685.68;226481;1250;139284;-61
2022/11/20 06:42:01;;;;;;;88.20;42.20;;;;;;;-2.57;62.82;98685.79;226555;1245;139382;-63
2022/11/20 06:47:04;;;;;;;76.00;40.00;;;;;;;-2.52;62.69;98679.46;227516;1230;138876;-64
2022/11/20 06:52:07;;;;;;;77.80;40.60;;;;;;;-2.49;62.78;98673.86;226545;1251;140434;-66
2022/11/20 06:57:10;;;;;;;73.50;40.00;;;;;;;-2.45;62.85;98677.79;226768;1245;139290;-63
2022/11/20 07:02:13;;;;;;;79.40;40.00;;;;;;;-2.43;62.58;98669.94;227760;1234;139244;-61
2022/11/20 07:07:16;;;;;;;74.80;39.90;;;;;;;-2.41;62.81;98669.91;226748;1249;138953;-62
2022/11/20 07:12:20;;;;;;;79.20;40.50;;;;;;;-2.39;63.01;98674.38;227729;1241;139366;-62
2022/11/20 07:17:23;;;;;;;79.60;41.20;;;;;;;-2.34;63.31;98677.27;226647;1249;139576;-62
2022/11/20 07:22:26;;;;;;;176.80;92.00;;;;;;;-2.12;63.79;98682.81;226233;1251;139280;-62
2022/11/20 07:27:29;;;;;;;76.20;41.40;;;;;;;-1.94;63.27;98683.55;226542;1243;139474;-62
2022/11/20 07:32:32;;;;;;;80.70;41.20;;;;;;;-1.83;63.38;98685.79;226742;1234;139691;-62
2022/11/20 07:37:36;;;;;;;71.80;39.30;;;;;;;-1.78;63.56;98689.34;226642;1240;139717;-63
2022/11/20 07:42:39;;;;;;;95.40;44.40;;;;;;;-1.75;63.62;98699.71;226815;1242;140685;-64
2022/11/20 07:47:42;;;;;;;89.50;45.10;;;;;;;-1.63;63.91;98703.14;226883;1241;140113;-64
2022/11/20 07:52:45;;;;;;;170.20;91.10;;;;;;;-1.35;64.34;98699.67;226722;1249;140273;-64
2022/11/20 07:57:54;;;;;;;84.90;46.40;;;;;;;-1.03;64.43;98697.11;226684;1231;139600;-63
2022/11/20 08:02:57;;;;;;;84.30;43.30;;;;;;;-0.96;62.61;98704.95;226585;1236;232443;-64
2022/11/20 08:08:01;;;;;;;79.60;44.40;;;;;;;-0.93;62.61;98701.76;226512;1250;138881;-65
2022/11/20 08:18:25;;;;;;;85.80;47.10;;;;;;;-0.99;62.89;98702.91;226459;1250;139342;-63
2022/11/20 08:23:34;;;;;;;89.80;48.40;;;;;;;-0.97;62.86;98701.14;227511;1237;138333;-65
2022/11/20 08:28:36;;;;;;;168.70;90.60;;;;;;;-0.93;63.54;98702.29;227582;1228;138507;-64
2022/11/20 08:33:39;;;;;;;90.50;47.20;;;;;;;-0.87;63.27;98695.02;226652;1249;139878;-66
2022/11/20 08:38:47;;;;;;;98.80;50.10;;;;;;;-0.86;63.48;98691.69;226478;1242;138550;-66
2022/11/20 08:43:56;;;;;;;88.30;46.30;;;;;;;-0.83;64.09;98686.22;226560;1235;138948;-65
2022/11/20 08:48:59;;;;;;;95.90;48.20;;;;;;;-0.81;64.16;98682.52;226311;1242;139117;-63
2022/11/20 08:54:04;;;;;;;99.00;49.40;;;;;;;-0.78;64.27;98680.18;226441;1238;138828;-64
2022/11/20 08:59:07;;;;;;;104.20;51.70;;;;;;;-0.73;64.44;98671.20;226577;1236;138910;-63
2022/11/20 09:04:30;;;;;;;92.40;48.10;;;;;;;-0.27;71.39;98663.61;226783;1249;140560;-66
2022/11/20 09:09:33;;;;;;;123.60;66.60;;;;;;;0.53;65.68;98654.08;227388;1242;140091;-63
2022/11/20 09:14:36;;;;;;;88.60;48.20;;;;;;;0.43;63.95;98658.89;226275;1236;139737;-62
2022/11/20 09:19:40;;;;;;;82.60;46.90;;;;;;;0.28;64.02;98656.50;226703;1234;139537;-64
2022/11/20 09:24:43;;;;;;;91.40;49.00;;;;;;;0.56;64.16;98652.77;226630;1240;138559;-62
2022/11/20 09:29:46;;;;;;;98.20;49.30;;;;;;;0.28;63.12;98653.91;226934;1234;138422;-62
2022/11/20 09:34:49;;;;;;;92.40;48.50;;;;;;;0.09;63.54;98662.25;226754;1252;138489;-62
2022/11/20 09:39:52;;;;;;;96.50;50.90;;;;;;;-0.02;63.99;98662.17;226578;1252;138718;-60
2022/11/20 09:45:23;;;;;;;93.70;48.40;;;;;;;-0.05;64.24;98662.60;226744;1234;139286;-63
2022/11/20 09:50:49;;;;;;;91.90;50.00;;;;;;;-0.01;64.37;98661.63;226677;1249;140154;-64
2022/11/20 09:55:52;;;;;;;;;;;;;;;0.00;64.54;98656.19;226849;1234;139076;-63
2022/11/20 10:01:03;;;;;;;100.50;49.70;;;;;;;0.04;64.85;98655.76;226735;1241;124738;-64
2022/11/20 10:06:13;;;;;;;99.60;50.70;;;;;;;0.04;64.85;98654.87;226602;1252;138638;-64
2022/11/20 10:11:26;;;;;;;98.40;52.80;;;;;;;0.09;65.21;98658.77;226869;1226;138670;-62
2022/11/20 10:17:03;;;;;;;101.60;52.70;;;;;;;0.13;65.13;98664.05;226716;1241;138979;-63
2022/11/20 10:22:30;;;;;;;105.00;53.10;;;;;;;0.27;66.16;98657.42;226685;1242;139425;-63
2022/11/20 10:28:12;;;;;;;96.50;50.50;;;;;;;0.35;65.33;98654.23;226661;1244;138650;-62
2022/11/20 10:33:23;;;;;;;96.40;51.10;;;;;;;0.39;65.18;98646.09;226512;1235;138969;-65
2022/11/20 10:38:42;;;;;;;136.90;72.90;;;;;;;0.48;65.65;98641.48;226839;1234;138548;-66
2022/11/20 10:43:48;;;;;;;97.80;50.70;;;;;;;0.79;67.67;98639.02;227674;1241;139175;-65
2022/11/20 10:48:51;;;;;;;104.60;57.30;;;;;;;1.01;67.09;98635.95;226758;1236;138474;-66
2022/11/20 10:54:09;;;;;;;100.40;53.00;;;;;;;1.31;65.65;98622.80;227378;1233;138856;-66
2022/11/20 10:59:26;;;;;;;94.10;50.60;;;;;;;1.33;63.97;98611.55;226419;1238;139583;-73
2022/11/20 11:04:32;;;;;;;99.00;51.20;;;;;;;1.35;63.94;98608.33;227476;1233;139647;-65
2022/11/20 11:09:42;;;;;;;97.90;52.00;;;;;;;1.44;63.83;98603.17;226759;1240;139592;-65
2022/11/20 11:14:51;;;;;;;88.20;49.60;;;;;;;1.51;63.80;98591.04;226409;1234;138542;-65
2022/11/20 11:20:11;;;;;;;90.90;50.60;;;;;;;1.58;63.79;98584.52;226739;1245;138297;-64
2022/11/20 11:25:33;;;;;;;283.80;148.20;;;;;;;1.71;65.08;98573.23;226858;1238;138640;-63
2022/11/20 11:30:48;;;;;;;88.90;49.00;;;;;;;1.91;63.95;98568.55;226511;1249;138971;-64
2022/11/20 11:36:01;;;;;;;75.10;42.30;;;;;;;1.86;62.95;98566.80;226232;1242;139006;-63
2022/11/20 11:41:07;;;;;;;82.00;47.00;;;;;;;1.85;62.95;98568.92;226314;1242;138594;-63
2022/11/20 11:46:34;;;;;;;83.80;46.50;;;;;;;1.83;62.88;98569.16;226685;1249;138793;-64
2022/11/20 11:51:49;;;;;;;79.70;43.70;;;;;;;1.81;62.71;98555.57;226646;1247;138415;-65
2022/11/20 11:56:53;;;;;;;77.80;43.30;;;;;;;1.82;62.58;98545.05;226652;1249;138750;-64
2022/11/20 12:02:02;;;;;;;81.40;44.60;;;;;;;1.83;62.60;98538.20;226577;1252;141460;-65
2022/11/20 12:07:19;;;;;;;79.40;43.10;;;;;;;1.84;62.34;98533.63;226722;1249;138608;-64
2022/11/20 12:12:47;;;;;;;271.90;155.70;;;;;;;1.86;62.51;98530.75;226441;1237;138410;-63
2022/11/20 12:17:50;;;;;;;86.60;46.60;;;;;;;1.92;63.45;98530.89;226172;1254;139780;-65
2022/11/20 12:23:22;;;;;;;80.50;45.00;;;;;;;2.02;62.80;98531.05;226288;1240;138934;-66
2022/11/20 12:28:43;;;;;;;76.50;42.70;;;;;;;2.05;62.60;98526.76;226680;1249;138377;-65
2022/11/20 12:33:54;;;;;;;81.80;42.60;;;;;;;2.06;62.25;98531.77;226286;1235;138976;-64
2022/11/20 12:39:34;;;;;;;83.80;47.00;;;;;;;2.08;62.51;98537.31;227192;1234;138297;-66
2022/11/20 12:45:10;;;;;;;90.70;49.20;;;;;;;2.12;63.06;98538.56;226536;1253;138594;-65
2022/11/20 12:50:44;;;;;;;86.00;48.90;;;;;;;2.20;63.47;98533.02;226748;1240;138403;-65
2022/11/20 12:56:25;;;;;;;89.60;48.40;;;;;;;2.23;63.57;98523.65;226751;1242;138624;-65
2022/11/20 13:01:47;;;;;;;87.20;47.70;;;;;;;2.27;63.50;98513.36;226729;1252;138833;-66
2022/11/20 13:06:50;;;;;;;95.20;52.90;;;;;;;2.27;64.69;98512.48;226626;1241;138723;-65
2022/11/20 13:12:08;;;;;;;100.30;53.40;;;;;;;2.58;67.10;98503.44;227629;1236;139687;-65
2022/11/20 13:17:22;;;;;;;89.20;49.60;;;;;;;2.56;64.01;98491.41;226409;1244;139391;-65
2022/11/20 13:22:42;;;;;;;86.40;50.40;;;;;;;2.59;63.91;98485.52;227247;1227;139234;-62
2022/11/20 13:27:48;;;;;;;89.50;49.40;;;;;;;2.62;63.64;98484.55;226657;1234;140340;-62
2022/11/20 13:33:06;;;;;;;92.20;50.80;;;;;;;2.59;63.41;98486.57;226758;1241;138545;-63
2022/11/20 13:38:12;;;;;;;90.30;50.90;;;;;;;2.55;63.21;98472.37;226845;1255;139895;-62
2022/11/20 13:43:36;;;;;;;89.40;48.20;;;;;;;2.56;63.52;98453.61;226619;1240;138684;-62
2022/11/20 13:48:43;;;;;;;88.10;47.30;;;;;;;2.55;63.49;98451.70;226050;1256;138329;-62
2022/11/20 13:53:57;;;;;;;189.40;106.00;;;;;;;2.55;64.04;98452.93;226277;1246;138532;-63
2022/11/20 13:59:28;;;;;;;88.50;50.30;;;;;;;2.71;64.25;98451.45;226700;1252;138705;-63
2022/11/20 14:04:38;;;;;;;76.20;43.80;;;;;;;2.61;63.00;98454.27;226681;1241;138327;-63
2022/11/20 14:09:58;;;;;;;79.00;44.70;;;;;;;2.51;62.68;98459.06;226739;1240;139737;-61
2022/11/20 14:15:01;;;;;;;75.60;40.40;;;;;;;2.44;62.72;98462.13;227280;1233;138598;-65
2022/11/20 14:20:12;;;;;;;76.20;41.50;;;;;;;2.34;62.66;98462.31;226788;1241;138393;-63
2022/11/20 14:25:15;;;;;;;73.00;41.70;;;;;;;2.26;62.53;98461.94;226680;1240;139198;-64
2022/11/20 14:30:24;;;;;;;77.10;43.10;;;;;;;2.23;62.81;98451.20;227630;1233;138492;-64
2022/11/20 14:35:29;;;;;;;86.50;46.40;;;;;;;2.20;63.21;98440.48;226648;1240;138834;-64
2022/11/20 14:40:35;;;;;;;92.70;48.50;;;;;;;2.16;63.26;98436.26;226400;1235;138548;-62
2022/11/20 14:45:38;;;;;;;94.60;53.60;;;;;;;2.06;63.82;98443.45;226414;1238;139762;-64
2022/11/20 14:50:42;;;;;;;88.50;49.20;;;;;;;2.07;64.80;98438.86;226756;1255;138625;-64
2022/11/20 14:55:56;;;;;;;89.00;51.10;;;;;;;2.03;64.20;98435.16;226807;1247;139496;-64
2022/11/20 15:01:03;;;;;;;;;;;;;;;1.93;64.52;98433.42;227674;1248;138483;-64
2022/11/20 15:06:10;;;;;;;108.00;55.70;;;;;;;1.84;64.80;98430.44;226887;1250;125416;-63
2022/11/20 15:11:25;;;;;;;104.00;54.00;;;;;;;1.85;64.99;98425.16;227675;1248;139212;-64
2022/11/20 15:16:28;;;;;;;225.90;119.80;;;;;;;1.84;66.30;98425.55;226652;1234;139746;-63
2022/11/20 15:21:31;;;;;;;107.50;58.10;;;;;;;1.93;66.45;98423.27;227544;1248;138917;-66
2022/11/20 15:26:36;;;;;;;95.80;50.60;;;;;;;1.87;65.54;98428.38;227470;1231;139784;-63
2022/11/20 15:31:41;;;;;;;104.70;56.80;;;;;;;1.98;65.63;98427.98;226769;1235;139491;-62
2022/11/20 15:36:44;;;;;;;125.50;60.40;;;;;;;2.12;65.37;98430.09;226776;1233;139138;-64
2022/11/20 15:41:47;;;;;;;117.80;60.00;;;;;;;2.14;65.12;98421.97;226835;1248;139440;-64
2022/11/20 15:46:50;;;;;;;109.10;56.20;;;;;;;2.05;65.11;98415.14;227490;1248;139364;-65
2022/11/20 15:51:53;;;;;;;102.50;55.30;;;;;;;1.97;65.11;98406.89;226706;1255;138887;-64
2022/11/20 15:56:56;;;;;;;103.50;54.20;;;;;;;1.87;65.37;98408.79;227504;1232;139085;-63
2022/11/20 16:01:59;;;;;;;98.10;53.10;;;;;;;1.81;65.44;98407.28;226268;1237;139700;-64
2022/11/20 16:07:03;;;;;;;90.70;52.40;;;;;;;1.73;65.57;98403.39;227494;1247;138604;-65
2022/11/20 16:15:44;;;;;;;86.10;47.50;;;;;;;1.65;65.55;98401.05;226856;1238;138502;-65
2022/11/20 16:17:42;;;;;;;96.00;50.50;;;;;;;1.57;65.78;98398.89;227702;1228;138703;-63
2022/11/20 16:22:45;;;;;;;86.10;50.00;;;;;;;1.56;65.70;98393.88;226781;1252;139085;-63
2022/11/20 16:27:48;;;;;;;90.00;49.40;;;;;;;1.53;65.81;98397.66;226585;1248;139149;-63
2022/11/20 16:32:51;;;;;;;168.70;91.90;;;;;;;1.62;68.37;98399.43;226115;1252;139998;-65
2022/11/20 16:37:55;;;;;;;93.30;52.10;;;;;;;1.83;67.36;98404.60;226361;1241;139066;-66
2022/11/20 16:43:10;;;;;;;91.30;53.20;;;;;;;1.80;65.96;98405.92;226599;1237;138774;-66
2022/11/20 16:48:15;;;;;;;96.40;55.00;;;;;;;1.81;65.96;98405.89;226900;1238;138415;-64
2022/11/20 16:53:21;;;;;;;99.60;55.60;;;;;;;1.83;66.06;98409.84;227538;1226;138721;-65
2022/11/20 16:58:24;;;;;;;95.80;53.80;;;;;;;1.83;65.94;98407.71;227614;1231;138342;-63
2022/11/20 17:03:27;;;;;;;100.60;53.70;;;;;;;1.80;66.10;98401.20;227607;1230;140425;-63
2022/11/20 17:08:30;;;;;;;97.00;53.50;;;;;;;1.78;66.05;98400.39;226757;1249;139279;-65
2022/11/20 17:13:33;;;;;;;101.80;54.60;;;;;;;1.77;66.34;98394.33;226706;1249;138495;-66
2022/11/20 17:18:43;;;;;;;103.90;56.10;;;;;;;1.75;66.40;98395.10;227437;1227;138580;-65
2022/11/20 17:23:46;;;;;;;108.90;58.70;;;;;;;1.72;66.42;98398.38;227422;1235;139948;-64
2022/11/20 17:29:01;;;;;;;107.60;56.40;;;;;;;1.66;66.64;98390.52;226433;1243;138707;-66
2022/11/20 17:34:09;;;;;;;146.70;76.80;;;;;;;1.71;67.15;98386.67;226837;1245;139771;-66
2022/11/20 17:39:14;;;;;;;106.60;57.80;;;;;;;1.87;68.83;98382.04;226797;1234;139328;-65
2022/11/20 17:44:17;;;;;;;109.40;58.70;;;;;;;1.91;67.20;98374.39;226804;1241;139074;-63
2022/11/20 17:49:20;;;;;;;98.10;53.50;;;;;;;1.87;67.03;98362.45;226728;1234;139607;-66
2022/11/20 17:54:25;;;;;;;103.30;57.50;;;;;;;1.86;66.58;98354.09;226782;1244;139594;-65
2022/11/20 17:59:28;;;;;;;110.40;58.40;;;;;;;1.84;66.64;98351.89;227701;1228;139076;-64
2022/11/20 18:04:31;;;;;;;106.30;56.40;;;;;;;1.81;66.58;98357.45;227626;1242;138605;-65
2022/11/20 18:09:34;;;;;;;109.50;57.00;;;;;;;1.77;66.68;98358.14;226725;1234;139210;-63
2022/11/20 18:14:37;;;;;;;108.90;56.40;;;;;;;1.75;67.05;98360.30;227595;1231;139859;-64
2022/11/20 18:19:44;;;;;;;108.60;55.70;;;;;;;1.71;66.89;98365.73;226764;1249;139017;-64
2022/11/20 18:25:07;;;;;;;106.90;56.20;;;;;;;1.68;67.29;98360.58;226738;1249;139125;-63
2022/11/20 18:30:11;;;;;;;122.30;58.00;;;;;;;1.67;67.29;98362.52;226618;1237;139412;-65
2022/11/20 18:35:14;;;;;;;105.10;59.00;;;;;;;1.68;67.31;98352.33;226154;1244;139763;-64
2022/11/20 18:40:17;;;;;;;118.50;59.90;;;;;;;1.63;67.22;98340.45;227365;1231;139396;-65
2022/11/20 18:45:20;;;;;;;104.90;56.60;;;;;;;1.62;67.30;98327.70;226621;1245;139154;-65
2022/11/20 18:50:23;;;;;;;105.50;56.80;;;;;;;1.58;67.36;98329.13;227539;1234;139164;-66
2022/11/20 18:55:26;;;;;;;246.60;136.30;;;;;;;1.59;68.34;98333.60;226789;1237;138363;-65
2022/11/20 19:00:29;;;;;;;111.60;56.60;;;;;;;1.73;68.64;98332.04;226750;1235;139745;-63
2022/11/20 19:05:35;;;;;;;107.30;57.20;;;;;;;1.70;67.31;98323.07;226908;1249;140287;-63
2022/11/20 19:10:38;;;;;;;114.70;60.20;;;;;;;1.71;67.11;98324.45;226569;1237;139104;-62
2022/11/20 19:15:41;;;;;;;106.00;56.80;;;;;;;1.69;67.01;98328.69;226213;1249;138465;-64
2022/11/20 19:20:44;;;;;;;118.40;60.50;;;;;;;1.62;66.80;98324.39;227367;1233;139183;-64
2022/11/20 19:25:48;;;;;;;110.50;55.80;;;;;;;1.53;66.60;98312.69;227612;1242;138579;-64
2022/11/20 19:30:51;;;;;;;106.70;56.00;;;;;;;1.48;66.78;98312.00;227502;1226;139175;-62
2022/11/20 19:35:54;;;;;;;107.40;56.00;;;;;;;1.43;66.69;98311.99;226345;1248;139324;-63
2022/11/20 19:40:57;;;;;;;113.80;57.40;;;;;;;1.39;66.80;98311.98;226289;1235;138791;-63
2022/11/20 19:46:01;;;;;;;125.30;60.50;;;;;;;1.34;66.96;98314.96;226769;1249;139516;-63
2022/11/20 19:51:19;;;;;;;146.30;62.30;;;;;;;1.27;67.37;98312.08;227593;1227;138538;-64
2022/11/20 19:56:23;;;;;;;133.10;63.50;;;;;;;1.15;67.30;98316.70;227617;1242;138712;-63
2022/11/20 20:01:29;;;;;;;133.20;59.90;;;;;;;1.10;67.69;98318.64;226687;1236;138976;-62
2022/11/20 20:06:35;;;;;;;328.60;189.60;;;;;;;1.14;68.67;98322.14;226873;1237;139183;-64
2022/11/20 20:11:38;;;;;;;;;;;;;;;1.30;70.58;98330.67;226862;1241;139644;-61
2022/11/20 20:16:41;;;;;;;122.90;61.50;;;;;;;1.32;68.20;98329.02;227635;1230;125464;-60
2022/11/20 20:21:46;;;;;;;452.00;277.00;;;;;;;1.32;68.13;98325.88;226772;1238;139384;-63
2022/11/20 20:26:49;;;;;;;134.10;64.40;;;;;;;1.40;68.50;98332.41;226776;1233;139986;-62
2022/11/20 20:31:58;;;;;;;142.10;67.30;;;;;;;1.41;67.84;98339.88;226812;1234;138445;-63
2022/11/20 20:37:04;;;;;;;133.30;65.40;;;;;;;1.31;67.97;98340.92;227591;1227;140764;-62
2022/11/20 20:42:06;;;;;;;133.70;63.80;;;;;;;1.24;68.04;98333.87;226836;1249;138403;-62
2022/11/20 20:47:09;;;;;;;131.00;63.10;;;;;;;1.15;68.06;98338.51;226807;1249;138925;-62
2022/11/20 20:52:13;;;;;;;150.50;67.40;;;;;;;1.03;68.29;98343.52;226723;1238;138650;-65
2022/11/20 20:57:16;;;;;;;126.60;60.90;;;;;;;0.92;68.75;98344.91;226804;1234;139775;-64
2022/11/20 21:02:21;;;;;;;116.20;58.90;;;;;;;0.96;69.05;98340.44;226766;1241;138522;-64
2022/11/20 21:07:25;;;;;;;138.10;60.30;;;;;;;0.95;69.00;98335.56;226704;1238;139232;-65
2022/11/20 21:12:28;;;;;;;125.90;60.70;;;;;;;0.94;69.24;98329.67;226754;1243;139286;-66
2022/11/20 21:17:31;;;;;;;131.00;60.30;;;;;;;0.94;69.35;98328.63;226833;1242;138879;-65
2022/11/20 21:22:34;;;;;;;151.80;67.20;;;;;;;0.96;69.47;98321.55;226538;1240;138848;-65
2022/11/20 21:27:38;;;;;;;128.80;64.70;;;;;;;1.05;69.50;98330.35;227322;1242;139886;-65
2022/11/20 21:32:43;;;;;;;134.10;65.70;;;;;;;1.18;69.28;98341.77;226613;1249;139148;-65
2022/11/20 21:37:46;;;;;;;137.30;66.10;;;;;;;1.29;69.08;98342.55;226754;1244;138936;-65
2022/11/20 21:42:52;;;;;;;135.30;64.70;;;;;;;1.38;68.91;98341.88;227673;1242;139192;-65
2022/11/20 21:47:55;;;;;;;140.00;67.30;;;;;;;1.37;68.65;98334.24;226782;1234;139108;-65
2022/11/20 21:52:58;;;;;;;135.00;64.30;;;;;;;1.35;68.76;98319.64;226772;1234;138666;-66
2022/11/20 21:58:01;;;;;;;111.40;60.40;;;;;;;1.35;68.84;98319.45;227653;1227;138583;-66
2022/11/20 22:03:04;;;;;;;125.90;61.80;;;;;;;1.37;68.99;98323.77;226470;1244;139040;-64
2022/11/20 22:08:07;;;;;;;117.00;59.40;;;;;;;1.41;68.97;98328.33;226432;1243;138545;-64
2022/11/20 22:18:32;;;;;;;111.00;58.10;;;;;;;1.38;69.08;98326.33;226868;1249;139417;-65
2022/11/20 22:23:35;;;;;;;109.70;57.90;;;;;;;1.39;69.10;98331.02;227774;1226;138559;-65
2022/11/20 22:28:39;;;;;;;110.50;57.60;;;;;;;1.43;69.13;98341.54;226599;1249;138697;-64
2022/11/20 22:33:43;;;;;;;117.40;61.30;;;;;;;1.44;69.11;98339.08;226475;1244;138991;-65
2022/11/20 22:38:46;;;;;;;115.90;61.10;;;;;;;1.51;69.01;98338.10;226643;1250;139327;-65
2022/11/20 22:43:56;;;;;;;117.60;61.30;;;;;;;1.65;69.18;98344.04;226755;1241;140681;-64
2022/11/20 22:49:02;;;;;;;125.50;63.80;;;;;;;1.76;68.78;98352.05;226603;1234;139502;-65
2022/11/20 22:54:05;;;;;;;116.50;63.20;;;;;;;1.80;68.75;98351.02;226635;1245;139206;-64
2022/11/20 22:59:08;;;;;;;120.10;61.90;;;;;;;1.83;68.52;98352.09;226799;1247;139133;-65
2022/11/20 23:04:12;;;;;;;117.30;61.80;;;;;;;1.84;68.61;98341.08;226913;1227;141073;-65
2022/11/20 23:09:16;;;;;;;112.80;59.80;;;;;;;1.85;68.71;98341.04;227679;1242;141651;-65
2022/11/20 23:14:19;;;;;;;124.20;64.10;;;;;;;1.87;68.64;98345.30;226803;1241;138917;-65
2022/11/20 23:19:29;;;;;;;108.10;60.40;;;;;;;1.89;68.93;98345.59;226730;1249;142004;-65
2022/11/20 23:24:32;;;;;;;113.80;59.20;;;;;;;1.94;69.09;98330.88;226743;1244;139370;-65